sensor_id;sensor_type;location;lat;lon;timestamp;P1;durP1;ratioP1;P2;durP2;ratioP2
7334;SDS011;3708;42.632;23.378;2023-02-25T00:00:40;27.13;;;16.07;;
7334;SDS011;3708;42.632;23.378;2023-02-25T00:03:08;25.73;;;16.30;;
7334;SDS011;3708;42.632;23.378;2023-02-25T00:05:36;29.73;;;16.93;;
7334;SDS011;3708;42.632;23.378;2023-02-25T00:08:05;32.20;;;17.70;;
7334;SDS011;3708;42.632;23.378;2023-02-25T00:10:32;26.17;;;17.33;;
7334;SDS011;3708;42.632;23.378;2023-02-25T00:13:00;27.53;;;17.77;;
7334;SDS011;3708;42.632;23.378;2023-02-25T00:15:29;30.13;;;17.60;;
7334;SDS011;3708;42.632;23.378;2023-02-25T00:17:55;28.77;;;16.30;;
7334;SDS011;3708;42.632;23.378;2023-02-25T00:20:22;27.83;;;16.80;;
7334;SDS011;3708;42.632;23.378;2023-02-25T00:22:50;29.87;;;16.93;;
7334;SDS011;3708;42.632;23.378;2023-02-25T00:25:19;30.53;;;16.80;;
7334;SDS011;3708;42.632;23.378;2023-02-25T00:27:45;30.07;;;17.67;;
7334;SDS011;3708;42.632;23.378;2023-02-25T00:30:12;28.37;;;18.00;;
7334;SDS011;3708;42.632;23.378;2023-02-25T00:32:39;29.50;;;16.50;;
7334;SDS011;3708;42.632;23.378;2023-02-25T00:35:06;27.03;;;17.07;;
7334;SDS011;3708;42.632;23.378;2023-02-25T00:37:36;25.93;;;16.30;;
7334;SDS011;3708;42.632;23.378;2023-02-25T00:40:04;24.20;;;14.83;;
7334;SDS011;3708;42.632;23.378;2023-02-25T00:42:35;22.33;;;15.47;;
7334;SDS011;3708;42.632;23.378;2023-02-25T00:45:02;22.43;;;15.30;;
7334;SDS011;3708;42.632;23.378;2023-02-25T00:47:29;25.80;;;16.43;;
7334;SDS011;3708;42.632;23.378;2023-02-25T00:49:56;23.17;;;14.20;;
7334;SDS011;3708;42.632;23.378;2023-02-25T00:52:23;31.00;;;15.43;;
7334;SDS011;3708;42.632;23.378;2023-02-25T00:54:50;25.23;;;15.43;;
7334;SDS011;3708;42.632;23.378;2023-02-25T00:57:16;23.20;;;13.77;;
7334;SDS011;3708;42.632;23.378;2023-02-25T00:59:45;28.13;;;14.30;;
7334;SDS011;3708;42.632;23.378;2023-02-25T01:02:12;27.43;;;15.20;;
7334;SDS011;3708;42.632;23.378;2023-02-25T01:04:38;21.80;;;13.60;;
7334;SDS011;3708;42.632;23.378;2023-02-25T01:07:05;29.33;;;13.97;;
7334;SDS011;3708;42.632;23.378;2023-02-25T01:09:32;28.40;;;13.87;;
7334;SDS011;3708;42.632;23.378;2023-02-25T01:11:59;19.97;;;13.07;;
7334;SDS011;3708;42.632;23.378;2023-02-25T01:14:26;22.50;;;14.00;;
7334;SDS011;3708;42.632;23.378;2023-02-25T01:16:54;20.47;;;12.80;;
7334;SDS011;3708;42.632;23.378;2023-02-25T01:19:24;23.53;;;12.97;;
7334;SDS011;3708;42.632;23.378;2023-02-25T01:21:52;17.93;;;12.40;;
7334;SDS011;3708;42.632;23.378;2023-02-25T01:24:22;18.90;;;12.03;;
7334;SDS011;3708;42.632;23.378;2023-02-25T01:26:52;24.97;;;13.73;;
7334;SDS011;3708;42.632;23.378;2023-02-25T01:29:21;22.47;;;12.63;;
7334;SDS011;3708;42.632;23.378;2023-02-25T01:31:50;26.57;;;13.07;;
7334;SDS011;3708;42.632;23.378;2023-02-25T01:34:19;26.47;;;13.03;;
7334;SDS011;3708;42.632;23.378;2023-02-25T01:36:46;22.50;;;12.90;;
7334;SDS011;3708;42.632;23.378;2023-02-25T01:39:14;21.33;;;13.10;;
7334;SDS011;3708;42.632;23.378;2023-02-25T01:41:42;19.43;;;11.70;;
7334;SDS011;3708;42.632;23.378;2023-02-25T01:44:11;20.07;;;12.23;;
7334;SDS011;3708;42.632;23.378;2023-02-25T01:46:40;22.00;;;12.80;;
7334;SDS011;3708;42.632;23.378;2023-02-25T01:49:10;26.13;;;13.00;;
7334;SDS011;3708;42.632;23.378;2023-02-25T01:51:41;21.63;;;11.90;;
7334;SDS011;3708;42.632;23.378;2023-02-25T01:54:11;20.50;;;12.93;;
7334;SDS011;3708;42.632;23.378;2023-02-25T01:56:41;21.47;;;13.10;;
7334;SDS011;3708;42.632;23.378;2023-02-25T01:59:13;20.60;;;11.80;;
7334;SDS011;3708;42.632;23.378;2023-02-25T02:01:41;19.80;;;12.50;;
7334;SDS011;3708;42.632;23.378;2023-02-25T02:04:09;23.63;;;13.73;;
7334;SDS011;3708;42.632;23.378;2023-02-25T02:06:40;22.20;;;12.00;;
7334;SDS011;3708;42.632;23.378;2023-02-25T02:09:10;20.90;;;12.57;;
7334;SDS011;3708;42.632;23.378;2023-02-25T02:11:39;19.93;;;12.43;;
7334;SDS011;3708;42.632;23.378;2023-02-25T02:14:07;19.87;;;13.77;;
7334;SDS011;3708;42.632;23.378;2023-02-25T02:16:43;23.27;;;13.57;;
7334;SDS011;3708;42.632;23.378;2023-02-25T02:19:27;24.30;;;13.03;;
7334;SDS011;3708;42.632;23.378;2023-02-25T02:22:06;21.37;;;12.77;;
7334;SDS011;3708;42.632;23.378;2023-02-25T02:27:47;19.03;;;12.57;;
7334;SDS011;3708;42.632;23.378;2023-02-25T02:30:43;20.90;;;12.33;;
7334;SDS011;3708;42.632;23.378;2023-02-25T02:33:22;22.50;;;12.87;;
7334;SDS011;3708;42.632;23.378;2023-02-25T02:35:55;26.77;;;13.40;;
7334;SDS011;3708;42.632;23.378;2023-02-25T02:38:30;24.73;;;13.00;;
7334;SDS011;3708;42.632;23.378;2023-02-25T02:41:02;23.17;;;13.23;;
7334;SDS011;3708;42.632;23.378;2023-02-25T02:43:38;24.10;;;12.63;;
7334;SDS011;3708;42.632;23.378;2023-02-25T02:46:11;26.27;;;13.07;;
7334;SDS011;3708;42.632;23.378;2023-02-25T02:48:47;21.40;;;12.70;;
7334;SDS011;3708;42.632;23.378;2023-02-25T02:51:20;22.43;;;12.57;;
7334;SDS011;3708;42.632;23.378;2023-02-25T02:53:51;17.73;;;12.53;;
7334;SDS011;3708;42.632;23.378;2023-02-25T02:56:20;25.03;;;13.20;;
7334;SDS011;3708;42.632;23.378;2023-02-25T02:58:51;19.07;;;11.57;;
7334;SDS011;3708;42.632;23.378;2023-02-25T03:01:24;29.70;;;12.53;;
7334;SDS011;3708;42.632;23.378;2023-02-25T03:03:56;20.37;;;12.47;;
7334;SDS011;3708;42.632;23.378;2023-02-25T03:06:28;24.23;;;12.17;;
7334;SDS011;3708;42.632;23.378;2023-02-25T03:09:01;20.90;;;12.43;;
7334;SDS011;3708;42.632;23.378;2023-02-25T03:11:31;23.70;;;12.50;;
7334;SDS011;3708;42.632;23.378;2023-02-25T03:13:58;21.90;;;12.73;;
7334;SDS011;3708;42.632;23.378;2023-02-25T03:16:25;27.87;;;12.90;;
7334;SDS011;3708;42.632;23.378;2023-02-25T03:19:00;23.50;;;12.53;;
7334;SDS011;3708;42.632;23.378;2023-02-25T03:21:33;22.23;;;12.47;;
7334;SDS011;3708;42.632;23.378;2023-02-25T03:24:04;19.30;;;13.17;;
7334;SDS011;3708;42.632;23.378;2023-02-25T03:26:36;20.83;;;12.57;;
7334;SDS011;3708;42.632;23.378;2023-02-25T03:29:09;24.10;;;14.43;;
7334;SDS011;3708;42.632;23.378;2023-02-25T03:31:41;21.43;;;12.27;;
7334;SDS011;3708;42.632;23.378;2023-02-25T03:34:16;23.80;;;13.47;;
7334;SDS011;3708;42.632;23.378;2023-02-25T03:36:46;23.23;;;13.27;;
7334;SDS011;3708;42.632;23.378;2023-02-25T03:39:19;22.80;;;12.93;;
7334;SDS011;3708;42.632;23.378;2023-02-25T03:41:52;26.53;;;14.23;;
7334;SDS011;3708;42.632;23.378;2023-02-25T03:44:23;22.10;;;13.70;;
7334;SDS011;3708;42.632;23.378;2023-02-25T03:46:52;27.77;;;13.20;;
7334;SDS011;3708;42.632;23.378;2023-02-25T03:49:22;23.57;;;13.77;;
7334;SDS011;3708;42.632;23.378;2023-02-25T03:51:54;20.70;;;13.10;;
7334;SDS011;3708;42.632;23.378;2023-02-25T03:54:22;24.37;;;13.17;;
7334;SDS011;3708;42.632;23.378;2023-02-25T03:56:50;24.70;;;13.67;;
7334;SDS011;3708;42.632;23.378;2023-02-25T03:59:17;25.20;;;12.60;;
7334;SDS011;3708;42.632;23.378;2023-02-25T04:01:48;20.13;;;12.63;;
7334;SDS011;3708;42.632;23.378;2023-02-25T04:04:17;21.43;;;13.30;;
7334;SDS011;3708;42.632;23.378;2023-02-25T04:06:45;25.80;;;13.53;;
7334;SDS011;3708;42.632;23.378;2023-02-25T04:09:12;23.93;;;14.07;;
7334;SDS011;3708;42.632;23.378;2023-02-25T04:11:39;23.73;;;13.40;;
7334;SDS011;3708;42.632;23.378;2023-02-25T04:14:06;18.40;;;12.50;;
7334;SDS011;3708;42.632;23.378;2023-02-25T04:16:33;23.10;;;12.70;;
7334;SDS011;3708;42.632;23.378;2023-02-25T04:19:00;24.83;;;12.67;;
7334;SDS011;3708;42.632;23.378;2023-02-25T04:21:28;22.63;;;12.73;;
7334;SDS011;3708;42.632;23.378;2023-02-25T04:23:58;24.20;;;13.10;;
7334;SDS011;3708;42.632;23.378;2023-02-25T04:26:25;31.20;;;12.97;;
7334;SDS011;3708;42.632;23.378;2023-02-25T04:28:52;28.40;;;16.03;;
7334;SDS011;3708;42.632;23.378;2023-02-25T04:31:19;19.67;;;12.80;;
7334;SDS011;3708;42.632;23.378;2023-02-25T04:33:46;25.87;;;13.97;;
7334;SDS011;3708;42.632;23.378;2023-02-25T04:36:21;25.70;;;13.83;;
7334;SDS011;3708;42.632;23.378;2023-02-25T04:38:49;26.13;;;13.93;;
7334;SDS011;3708;42.632;23.378;2023-02-25T04:41:17;27.93;;;15.87;;
7334;SDS011;3708;42.632;23.378;2023-02-25T04:43:44;24.80;;;13.73;;
7334;SDS011;3708;42.632;23.378;2023-02-25T04:46:11;27.50;;;14.93;;
7334;SDS011;3708;42.632;23.378;2023-02-25T04:48:38;28.80;;;15.87;;
7334;SDS011;3708;42.632;23.378;2023-02-25T04:51:05;24.77;;;15.40;;
7334;SDS011;3708;42.632;23.378;2023-02-25T04:53:34;25.73;;;14.80;;
7334;SDS011;3708;42.632;23.378;2023-02-25T04:56:01;26.53;;;15.90;;
7334;SDS011;3708;42.632;23.378;2023-02-25T04:58:30;29.43;;;16.73;;
7334;SDS011;3708;42.632;23.378;2023-02-25T05:00:58;30.20;;;15.77;;
7334;SDS011;3708;42.632;23.378;2023-02-25T05:03:25;29.27;;;16.00;;
7334;SDS011;3708;42.632;23.378;2023-02-25T05:05:52;25.97;;;15.00;;
7334;SDS011;3708;42.632;23.378;2023-02-25T05:08:19;26.83;;;16.13;;
7334;SDS011;3708;42.632;23.378;2023-02-25T05:10:46;24.73;;;15.30;;
7334;SDS011;3708;42.632;23.378;2023-02-25T05:13:13;25.33;;;14.13;;
7334;SDS011;3708;42.632;23.378;2023-02-25T05:15:42;26.47;;;15.07;;
7334;SDS011;3708;42.632;23.378;2023-02-25T05:18:09;23.80;;;14.77;;
7334;SDS011;3708;42.632;23.378;2023-02-25T05:20:39;26.90;;;16.27;;
7334;SDS011;3708;42.632;23.378;2023-02-25T05:23:06;38.97;;;19.17;;
7334;SDS011;3708;42.632;23.378;2023-02-25T05:25:33;26.37;;;15.00;;
7334;SDS011;3708;42.632;23.378;2023-02-25T05:28:00;29.83;;;15.33;;
7334;SDS011;3708;42.632;23.378;2023-02-25T05:30:27;30.03;;;14.87;;
7334;SDS011;3708;42.632;23.378;2023-02-25T05:32:55;27.03;;;13.80;;
7334;SDS011;3708;42.632;23.378;2023-02-25T05:35:22;26.37;;;14.27;;
7334;SDS011;3708;42.632;23.378;2023-02-25T05:37:49;34.30;;;15.37;;
7334;SDS011;3708;42.632;23.378;2023-02-25T05:40:15;28.07;;;15.07;;
7334;SDS011;3708;42.632;23.378;2023-02-25T05:42:42;30.10;;;14.63;;
7334;SDS011;3708;42.632;23.378;2023-02-25T05:45:13;30.87;;;14.87;;
7334;SDS011;3708;42.632;23.378;2023-02-25T05:47:42;25.50;;;15.13;;
7334;SDS011;3708;42.632;23.378;2023-02-25T05:50:10;35.40;;;16.03;;
7334;SDS011;3708;42.632;23.378;2023-02-25T05:52:37;26.43;;;15.23;;
7334;SDS011;3708;42.632;23.378;2023-02-25T05:55:05;30.43;;;17.00;;
7334;SDS011;3708;42.632;23.378;2023-02-25T05:57:34;28.47;;;17.03;;
7334;SDS011;3708;42.632;23.378;2023-02-25T06:00:03;23.77;;;14.83;;
7334;SDS011;3708;42.632;23.378;2023-02-25T06:02:38;32.37;;;16.30;;
7334;SDS011;3708;42.632;23.378;2023-02-25T06:05:06;25.27;;;16.07;;
7334;SDS011;3708;42.632;23.378;2023-02-25T06:07:40;23.07;;;14.97;;
7334;SDS011;3708;42.632;23.378;2023-02-25T06:10:08;32.70;;;15.63;;
7334;SDS011;3708;42.632;23.378;2023-02-25T06:12:36;27.20;;;15.50;;
7334;SDS011;3708;42.632;23.378;2023-02-25T06:15:03;29.57;;;14.57;;
7334;SDS011;3708;42.632;23.378;2023-02-25T06:17:30;27.20;;;15.20;;
7334;SDS011;3708;42.632;23.378;2023-02-25T06:19:57;31.87;;;15.17;;
7334;SDS011;3708;42.632;23.378;2023-02-25T06:22:24;26.33;;;16.03;;
7334;SDS011;3708;42.632;23.378;2023-02-25T06:24:52;29.63;;;15.60;;
7334;SDS011;3708;42.632;23.378;2023-02-25T06:27:18;28.90;;;15.03;;
7334;SDS011;3708;42.632;23.378;2023-02-25T06:29:46;22.00;;;13.57;;
7334;SDS011;3708;42.632;23.378;2023-02-25T06:32:13;26.53;;;15.20;;
7334;SDS011;3708;42.632;23.378;2023-02-25T06:34:40;24.43;;;15.00;;
7334;SDS011;3708;42.632;23.378;2023-02-25T06:37:07;29.33;;;14.73;;
7334;SDS011;3708;42.632;23.378;2023-02-25T06:39:34;24.30;;;14.97;;
7334;SDS011;3708;42.632;23.378;2023-02-25T06:42:02;27.30;;;15.27;;
7334;SDS011;3708;42.632;23.378;2023-02-25T06:44:29;29.60;;;15.63;;
7334;SDS011;3708;42.632;23.378;2023-02-25T06:46:56;31.63;;;15.07;;
7334;SDS011;3708;42.632;23.378;2023-02-25T06:49:23;29.90;;;14.93;;
7334;SDS011;3708;42.632;23.378;2023-02-25T06:51:50;28.03;;;13.90;;
7334;SDS011;3708;42.632;23.378;2023-02-25T06:54:17;30.97;;;14.40;;
7334;SDS011;3708;42.632;23.378;2023-02-25T06:56:44;25.07;;;13.20;;
7334;SDS011;3708;42.632;23.378;2023-02-25T06:59:12;26.13;;;13.50;;
7334;SDS011;3708;42.632;23.378;2023-02-25T07:01:39;33.17;;;14.57;;
7334;SDS011;3708;42.632;23.378;2023-02-25T07:04:06;25.93;;;13.17;;
7334;SDS011;3708;42.632;23.378;2023-02-25T07:06:33;24.43;;;13.10;;
7334;SDS011;3708;42.632;23.378;2023-02-25T07:09:00;26.93;;;12.43;;
7334;SDS011;3708;42.632;23.378;2023-02-25T07:11:28;22.93;;;13.20;;
7334;SDS011;3708;42.632;23.378;2023-02-25T07:13:57;19.63;;;13.17;;
7334;SDS011;3708;42.632;23.378;2023-02-25T07:16:25;26.97;;;13.10;;
7334;SDS011;3708;42.632;23.378;2023-02-25T07:18:54;20.20;;;11.67;;
7334;SDS011;3708;42.632;23.378;2023-02-25T07:21:40;23.90;;;12.83;;
7334;SDS011;3708;42.632;23.378;2023-02-25T07:24:06;26.47;;;12.47;;
7334;SDS011;3708;42.632;23.378;2023-02-25T07:26:33;21.10;;;12.67;;
7334;SDS011;3708;42.632;23.378;2023-02-25T07:29:00;23.57;;;11.87;;
7334;SDS011;3708;42.632;23.378;2023-02-25T07:31:28;22.60;;;11.10;;
7334;SDS011;3708;42.632;23.378;2023-02-25T07:33:55;25.87;;;11.70;;
7334;SDS011;3708;42.632;23.378;2023-02-25T07:36:27;29.50;;;12.07;;
7334;SDS011;3708;42.632;23.378;2023-02-25T07:38:57;22.30;;;11.70;;
7334;SDS011;3708;42.632;23.378;2023-02-25T07:41:24;23.20;;;11.13;;
7334;SDS011;3708;42.632;23.378;2023-02-25T07:43:51;18.27;;;11.00;;
7334;SDS011;3708;42.632;23.378;2023-02-25T07:46:18;23.83;;;12.37;;
7334;SDS011;3708;42.632;23.378;2023-02-25T07:48:46;22.27;;;11.77;;
7334;SDS011;3708;42.632;23.378;2023-02-25T07:51:14;25.93;;;12.13;;
7334;SDS011;3708;42.632;23.378;2023-02-25T07:53:43;24.83;;;11.90;;
7334;SDS011;3708;42.632;23.378;2023-02-25T07:56:10;25.83;;;11.23;;
7334;SDS011;3708;42.632;23.378;2023-02-25T07:58:38;18.77;;;10.37;;
7334;SDS011;3708;42.632;23.378;2023-02-25T08:01:06;36.17;;;15.27;;
7334;SDS011;3708;42.632;23.378;2023-02-25T08:03:33;29.30;;;13.77;;
7334;SDS011;3708;42.632;23.378;2023-02-25T08:06:02;25.70;;;13.77;;
7334;SDS011;3708;42.632;23.378;2023-02-25T08:08:32;24.00;;;11.57;;
7334;SDS011;3708;42.632;23.378;2023-02-25T08:11:03;25.77;;;13.10;;
7334;SDS011;3708;42.632;23.378;2023-02-25T08:13:30;27.00;;;11.60;;
7334;SDS011;3708;42.632;23.378;2023-02-25T08:15:57;17.90;;;11.33;;
7334;SDS011;3708;42.632;23.378;2023-02-25T08:18:24;19.83;;;11.80;;
7334;SDS011;3708;42.632;23.378;2023-02-25T08:20:51;29.30;;;11.67;;
7334;SDS011;3708;42.632;23.378;2023-02-25T08:23:21;27.53;;;11.37;;
7334;SDS011;3708;42.632;23.378;2023-02-25T08:25:51;33.73;;;11.27;;
7334;SDS011;3708;42.632;23.378;2023-02-25T08:28:19;25.87;;;13.13;;
7334;SDS011;3708;42.632;23.378;2023-02-25T08:30:47;21.33;;;10.80;;
7334;SDS011;3708;42.632;23.378;2023-02-25T08:33:13;17.33;;;9.23;;
7334;SDS011;3708;42.632;23.378;2023-02-25T08:35:40;24.97;;;9.90;;
7334;SDS011;3708;42.632;23.378;2023-02-25T08:38:07;23.30;;;10.53;;
7334;SDS011;3708;42.632;23.378;2023-02-25T08:40:35;27.97;;;9.80;;
7334;SDS011;3708;42.632;23.378;2023-02-25T08:43:03;22.90;;;11.07;;
7334;SDS011;3708;42.632;23.378;2023-02-25T08:45:30;27.80;;;10.63;;
7334;SDS011;3708;42.632;23.378;2023-02-25T08:47:57;21.87;;;10.37;;
7334;SDS011;3708;42.632;23.378;2023-02-25T08:50:24;23.57;;;10.87;;
7334;SDS011;3708;42.632;23.378;2023-02-25T08:52:51;23.10;;;10.37;;
7334;SDS011;3708;42.632;23.378;2023-02-25T08:55:18;21.83;;;9.83;;
7334;SDS011;3708;42.632;23.378;2023-02-25T08:57:50;25.83;;;10.67;;
7334;SDS011;3708;42.632;23.378;2023-02-25T09:00:17;25.67;;;10.90;;
7334;SDS011;3708;42.632;23.378;2023-02-25T09:02:45;22.03;;;10.30;;
7334;SDS011;3708;42.632;23.378;2023-02-25T09:05:13;20.80;;;9.47;;
7334;SDS011;3708;42.632;23.378;2023-02-25T09:07:40;27.03;;;10.70;;
7334;SDS011;3708;42.632;23.378;2023-02-25T09:10:10;28.20;;;10.60;;
7334;SDS011;3708;42.632;23.378;2023-02-25T09:12:38;25.30;;;11.37;;
7334;SDS011;3708;42.632;23.378;2023-02-25T09:15:08;27.47;;;12.03;;
7334;SDS011;3708;42.632;23.378;2023-02-25T09:17:36;25.13;;;10.33;;
7334;SDS011;3708;42.632;23.378;2023-02-25T09:20:03;21.07;;;10.37;;
7334;SDS011;3708;42.632;23.378;2023-02-25T09:22:32;28.93;;;11.80;;
7334;SDS011;3708;42.632;23.378;2023-02-25T09:24:59;26.90;;;11.10;;
7334;SDS011;3708;42.632;23.378;2023-02-25T09:27:28;25.53;;;10.87;;
7334;SDS011;3708;42.632;23.378;2023-02-25T09:29:55;33.57;;;11.73;;
7334;SDS011;3708;42.632;23.378;2023-02-25T09:32:23;23.87;;;11.47;;
7334;SDS011;3708;42.632;23.378;2023-02-25T09:34:50;24.23;;;13.23;;
7334;SDS011;3708;42.632;23.378;2023-02-25T09:37:17;32.33;;;13.03;;
7334;SDS011;3708;42.632;23.378;2023-02-25T09:39:44;33.03;;;14.67;;
7334;SDS011;3708;42.632;23.378;2023-02-25T09:42:12;25.03;;;12.97;;
7334;SDS011;3708;42.632;23.378;2023-02-25T09:44:44;28.13;;;14.33;;
7334;SDS011;3708;42.632;23.378;2023-02-25T09:47:14;36.90;;;13.77;;
7334;SDS011;3708;42.632;23.378;2023-02-25T09:49:46;25.37;;;13.47;;
7334;SDS011;3708;42.632;23.378;2023-02-25T09:52:20;26.50;;;13.13;;
7334;SDS011;3708;42.632;23.378;2023-02-25T09:54:53;28.20;;;13.67;;
7334;SDS011;3708;42.632;23.378;2023-02-25T09:57:24;29.13;;;12.57;;
7334;SDS011;3708;42.632;23.378;2023-02-25T09:59:53;33.80;;;13.90;;
7334;SDS011;3708;42.632;23.378;2023-02-25T10:02:29;25.87;;;12.87;;
7334;SDS011;3708;42.632;23.378;2023-02-25T10:05:10;29.67;;;13.00;;
7334;SDS011;3708;42.632;23.378;2023-02-25T10:07:56;21.37;;;12.03;;
7334;SDS011;3708;42.632;23.378;2023-02-25T10:10:34;33.67;;;13.70;;
7334;SDS011;3708;42.632;23.378;2023-02-25T10:13:11;30.13;;;12.57;;
7334;SDS011;3708;42.632;23.378;2023-02-25T10:15:50;28.93;;;12.40;;
7334;SDS011;3708;42.632;23.378;2023-02-25T10:18:32;26.23;;;11.87;;
7334;SDS011;3708;42.632;23.378;2023-02-25T10:21:18;29.60;;;12.10;;
7334;SDS011;3708;42.632;23.378;2023-02-25T10:26:46;26.57;;;12.37;;
7334;SDS011;3708;42.632;23.378;2023-02-25T10:29:24;27.73;;;11.20;;
7334;SDS011;3708;42.632;23.378;2023-02-25T10:31:57;30.20;;;12.03;;
7334;SDS011;3708;42.632;23.378;2023-02-25T10:34:26;29.47;;;11.57;;
7334;SDS011;3708;42.632;23.378;2023-02-25T10:36:56;24.00;;;11.73;;
7334;SDS011;3708;42.632;23.378;2023-02-25T10:39:25;24.53;;;10.93;;
7334;SDS011;3708;42.632;23.378;2023-02-25T10:41:55;23.97;;;10.27;;
7334;SDS011;3708;42.632;23.378;2023-02-25T10:44:22;20.53;;;10.50;;
7334;SDS011;3708;42.632;23.378;2023-02-25T10:46:50;25.07;;;11.03;;
7334;SDS011;3708;42.632;23.378;2023-02-25T10:49:21;25.37;;;10.20;;
7334;SDS011;3708;42.632;23.378;2023-02-25T10:51:57;27.57;;;10.90;;
7334;SDS011;3708;42.632;23.378;2023-02-25T10:54:27;20.27;;;10.03;;
7334;SDS011;3708;42.632;23.378;2023-02-25T10:56:56;39.83;;;10.70;;
7334;SDS011;3708;42.632;23.378;2023-02-25T10:59:27;32.67;;;11.27;;
7334;SDS011;3708;42.632;23.378;2023-02-25T11:01:57;33.97;;;11.20;;
7334;SDS011;3708;42.632;23.378;2023-02-25T11:04:27;39.80;;;9.57;;
7334;SDS011;3708;42.632;23.378;2023-02-25T11:07:00;27.83;;;9.50;;
7334;SDS011;3708;42.632;23.378;2023-02-25T11:09:29;23.27;;;8.63;;
7334;SDS011;3708;42.632;23.378;2023-02-25T11:12:00;30.73;;;9.93;;
7334;SDS011;3708;42.632;23.378;2023-02-25T11:14:36;26.43;;;10.07;;
7334;SDS011;3708;42.632;23.378;2023-02-25T11:17:05;24.87;;;9.30;;
7334;SDS011;3708;42.632;23.378;2023-02-25T11:19:37;25.37;;;9.70;;
7334;SDS011;3708;42.632;23.378;2023-02-25T11:22:09;28.93;;;8.90;;
7334;SDS011;3708;42.632;23.378;2023-02-25T11:24:42;21.00;;;8.57;;
7334;SDS011;3708;42.632;23.378;2023-02-25T11:27:19;23.57;;;9.10;;
7334;SDS011;3708;42.632;23.378;2023-02-25T11:29:51;30.10;;;7.93;;
7334;SDS011;3708;42.632;23.378;2023-02-25T11:32:20;25.90;;;7.93;;
7334;SDS011;3708;42.632;23.378;2023-02-25T11:34:49;28.53;;;8.27;;
7334;SDS011;3708;42.632;23.378;2023-02-25T11:37:24;24.93;;;8.30;;
7334;SDS011;3708;42.632;23.378;2023-02-25T11:39:58;36.37;;;8.23;;
7334;SDS011;3708;42.632;23.378;2023-02-25T11:42:25;28.17;;;8.40;;
7334;SDS011;3708;42.632;23.378;2023-02-25T11:44:57;31.20;;;8.27;;
7334;SDS011;3708;42.632;23.378;2023-02-25T11:47:25;29.33;;;9.23;;
7334;SDS011;3708;42.632;23.378;2023-02-25T11:52:48;27.13;;;8.37;;
7334;SDS011;3708;42.632;23.378;2023-02-25T11:55:23;19.03;;;8.23;;
7334;SDS011;3708;42.632;23.378;2023-02-25T11:58:04;31.23;;;8.47;;
7334;SDS011;3708;42.632;23.378;2023-02-25T12:00:41;30.93;;;7.50;;
7334;SDS011;3708;42.632;23.378;2023-02-25T12:03:31;20.57;;;7.83;;
7334;SDS011;3708;42.632;23.378;2023-02-25T12:06:18;26.00;;;7.77;;
7334;SDS011;3708;42.632;23.378;2023-02-25T12:08:58;32.07;;;8.53;;
7334;SDS011;3708;42.632;23.378;2023-02-25T12:24:20;25.63;;;6.70;;
7334;SDS011;3708;42.632;23.378;2023-02-25T12:27:00;24.23;;;7.10;;
7334;SDS011;3708;42.632;23.378;2023-02-25T12:29:49;24.30;;;6.67;;
7334;SDS011;3708;42.632;23.378;2023-02-25T12:32:34;20.93;;;6.63;;
7334;SDS011;3708;42.632;23.378;2023-02-25T12:35:21;21.20;;;8.03;;
7334;SDS011;3708;42.632;23.378;2023-02-25T12:38:11;22.53;;;7.47;;
7334;SDS011;3708;42.632;23.378;2023-02-25T12:41:02;28.93;;;8.70;;
7334;SDS011;3708;42.632;23.378;2023-02-25T12:43:46;21.90;;;7.10;;
7334;SDS011;3708;42.632;23.378;2023-02-25T12:52:11;16.13;;;6.23;;
7334;SDS011;3708;42.632;23.378;2023-02-25T12:57:56;14.50;;;5.30;;
7334;SDS011;3708;42.632;23.378;2023-02-25T13:00:50;29.93;;;5.50;;
7334;SDS011;3708;42.632;23.378;2023-02-25T13:03:38;17.87;;;4.53;;
7334;SDS011;3708;42.632;23.378;2023-02-25T13:06:31;27.73;;;5.63;;
7334;SDS011;3708;42.632;23.378;2023-02-25T13:09:20;26.97;;;5.30;;
7334;SDS011;3708;42.632;23.378;2023-02-25T13:11:58;24.23;;;5.47;;
7334;SDS011;3708;42.632;23.378;2023-02-25T13:14:54;32.03;;;5.43;;
7334;SDS011;3708;42.632;23.378;2023-02-25T13:17:31;19.07;;;5.20;;
7334;SDS011;3708;42.632;23.378;2023-02-25T13:23:23;11.60;;;4.37;;
7334;SDS011;3708;42.632;23.378;2023-02-25T13:26:02;14.57;;;4.40;;
7334;SDS011;3708;42.632;23.378;2023-02-25T13:28:46;18.73;;;4.83;;
7334;SDS011;3708;42.632;23.378;2023-02-25T13:31:23;15.73;;;4.23;;
7334;SDS011;3708;42.632;23.378;2023-02-25T13:34:03;24.70;;;5.10;;
7334;SDS011;3708;42.632;23.378;2023-02-25T13:36:43;14.43;;;4.60;;
7334;SDS011;3708;42.632;23.378;2023-02-25T13:42:36;15.70;;;4.77;;
7334;SDS011;3708;42.632;23.378;2023-02-25T13:51:35;17.17;;;4.97;;
7334;SDS011;3708;42.632;23.378;2023-02-25T13:54:18;14.37;;;4.87;;
7334;SDS011;3708;42.632;23.378;2023-02-25T13:56:55;11.00;;;4.33;;
7334;SDS011;3708;42.632;23.378;2023-02-25T13:59:33;16.97;;;5.50;;
7334;SDS011;3708;42.632;23.378;2023-02-25T14:02:24;18.70;;;5.27;;
7334;SDS011;3708;42.632;23.378;2023-02-25T14:08:17;21.37;;;4.67;;
7334;SDS011;3708;42.632;23.378;2023-02-25T14:10:56;20.50;;;4.63;;
7334;SDS011;3708;42.632;23.378;2023-02-25T14:13:33;16.90;;;4.43;;
7334;SDS011;3708;42.632;23.378;2023-02-25T14:16:32;18.03;;;4.77;;
7334;SDS011;3708;42.632;23.378;2023-02-25T14:24:51;18.03;;;4.73;;
7334;SDS011;3708;42.632;23.378;2023-02-25T14:27:28;18.80;;;6.03;;
7334;SDS011;3708;42.632;23.378;2023-02-25T14:30:13;15.63;;;4.93;;
7334;SDS011;3708;42.632;23.378;2023-02-25T14:32:52;13.80;;;5.37;;
7334;SDS011;3708;42.632;23.378;2023-02-25T14:35:34;19.07;;;5.47;;
7334;SDS011;3708;42.632;23.378;2023-02-25T14:38:13;17.97;;;6.10;;
7334;SDS011;3708;42.632;23.378;2023-02-25T14:40:45;23.63;;;5.63;;
7334;SDS011;3708;42.632;23.378;2023-02-25T14:43:25;18.73;;;6.47;;
7334;SDS011;3708;42.632;23.378;2023-02-25T14:46:08;19.57;;;5.43;;
7334;SDS011;3708;42.632;23.378;2023-02-25T14:48:45;17.90;;;6.00;;
7334;SDS011;3708;42.632;23.378;2023-02-25T14:51:39;14.97;;;5.07;;
7334;SDS011;3708;42.632;23.378;2023-02-25T15:00:43;23.73;;;6.27;;
7334;SDS011;3708;42.632;23.378;2023-02-25T15:03:30;12.90;;;5.30;;
7334;SDS011;3708;42.632;23.378;2023-02-25T15:06:14;20.00;;;6.90;;
7334;SDS011;3708;42.632;23.378;2023-02-25T15:09:13;19.57;;;5.93;;
7334;SDS011;3708;42.632;23.378;2023-02-25T15:11:52;18.80;;;5.17;;
7334;SDS011;3708;42.632;23.378;2023-02-25T15:14:43;16.70;;;5.30;;
7334;SDS011;3708;42.632;23.378;2023-02-25T15:17:39;16.00;;;5.80;;
7334;SDS011;3708;42.632;23.378;2023-02-25T15:20:26;16.53;;;6.20;;
7334;SDS011;3708;42.632;23.378;2023-02-25T15:23:05;15.90;;;5.30;;
7334;SDS011;3708;42.632;23.378;2023-02-25T15:28:43;22.37;;;5.33;;
7334;SDS011;3708;42.632;23.378;2023-02-25T15:43:02;19.87;;;5.47;;
7334;SDS011;3708;42.632;23.378;2023-02-25T15:49:03;18.67;;;5.97;;
7334;SDS011;3708;42.632;23.378;2023-02-25T15:51:40;18.53;;;6.37;;
7334;SDS011;3708;42.632;23.378;2023-02-25T15:54:09;21.50;;;5.80;;
7334;SDS011;3708;42.632;23.378;2023-02-25T15:56:46;28.60;;;6.87;;
7334;SDS011;3708;42.632;23.378;2023-02-25T16:05:17;14.53;;;5.60;;
7334;SDS011;3708;42.632;23.378;2023-02-25T16:07:51;21.83;;;6.67;;
7334;SDS011;3708;42.632;23.378;2023-02-25T16:10:32;19.93;;;6.73;;
7334;SDS011;3708;42.632;23.378;2023-02-25T16:13:12;20.97;;;5.73;;
7334;SDS011;3708;42.632;23.378;2023-02-25T16:15:43;21.40;;;5.63;;
7334;SDS011;3708;42.632;23.378;2023-02-25T16:18:34;17.63;;;5.80;;
7334;SDS011;3708;42.632;23.378;2023-02-25T16:21:07;13.90;;;6.53;;
7334;SDS011;3708;42.632;23.378;2023-02-25T16:23:47;24.83;;;6.97;;
7334;SDS011;3708;42.632;23.378;2023-02-25T16:26:17;27.13;;;6.47;;
7334;SDS011;3708;42.632;23.378;2023-02-25T16:29:02;18.97;;;6.27;;